| time (UTC) | temp F | wind direction | speed MPH | gust MPH | rain 1hr in | rain 24hr in | rain mn in | humidity % | barometer mb |
| 20260502210539 | 54 | 54 | 0.0 | 0.0 | 0.08 | 0.12 | 0.12 | 97 | 1011.6 |
| 20260502210039 | 54 | 344 | 0.0 | 0.0 | 0.05 | 0.09 | 0.10 | 97 | 1011.7 |
| 20260502205539 | 54 | 337 | 0.0 | 0.0 | 0.06 | 0.09 | 0.09 | 97 | 1011.9 |
| 20260502205039 | 54 | 310 | 0.0 | 0.0 | 0.05 | 0.08 | 0.08 | 96 | 1012.1 |
| 20260502204539 | 54 | 297 | 0.0 | 0.0 | 0.06 | 0.08 | 0.08 | 96 | 1011.9 |
| 20260502204039 | 54 | 296 | 0.0 | 0.0 | 0.05 | 0.07 | 0.07 | 95 | 1012.2 |
| 20260502203539 | 54 | 287 | 0.0 | 0.0 | 0.06 | 0.07 | 0.07 | 94 | 1012.0 |
| 20260502203039 | 54 | 275 | 0.0 | 0.0 | 0.05 | 0.06 | 0.06 | 94 | 1012.1 |
| 20260502202538 | 54 | 351 | 0.0 | 0.0 | 0.05 | 0.06 | 0.06 | 94 | 1012.2 |
| 20260502202039 | 54 | 303 | 0.0 | 0.0 | 0.04 | 0.05 | 0.05 | 93 | 1012.3 |
| 20260502201539 | 54 | 287 | 0.0 | 0.0 | 0.04 | 0.05 | 0.05 | 93 | 1012.3 |
| 20260502201039 | 54 | 301 | 0.0 | 0.0 | 0.04 | 0.05 | 0.05 | 93 | 1012.3 |
| 20260502200539 | 54 | 329 | 0.0 | 0.0 | 0.03 | 0.04 | 0.04 | 92 | 1012.4 |
| 20260502200039 | 54 | 294 | 0.0 | 0.0 | 0.03 | 0.04 | 0.04 | 92 | 1012.3 |
| 20260502195539 | 55 | 306 | 0.0 | 0.0 | 0.03 | 0.03 | 0.03 | 92 | 1012.5 |
| 20260502195039 | 55 | 269 | 0.0 | 0.0 | 0.03 | 0.03 | 0.03 | 92 | 1012.4 |
| 20260502194539 | 55 | 274 | 0.0 | 0.0 | 0.02 | 0.02 | 0.02 | 92 | 1012.5 |
| 20260502194039 | 55 | 297 | 0.0 | 0.0 | 0.02 | 0.02 | 0.02 | 92 | 1012.4 |
| 20260502193539 | 55 | 276 | 0.0 | 0.0 | 0.01 | 0.01 | 0.01 | 92 | 1012.7 |
| 20260502193040 | 55 | 282 | 0.0 | 0.0 | 0.01 | 0.01 | 0.01 | 93 | 1012.6 |
| 20260502192538 | 56 | 260 | 0.0 | 0.0 | 0.01 | 0.01 | 0.01 | 94 | 1012.4 |
| 20260502192039 | 56 | 284 | 0.0 | 0.0 | 0.01 | 0.01 | 0.01 | 94 | 1012.5 |
| 20260502191538 | 56 | 320 | 0.0 | 0.0 | 0.01 | 0.01 | 0.01 | 96 | 1012.3 |
| 20260502191040 | 56 | 265 | 0.0 | 0.0 | 0.01 | 0.01 | 0.01 | 96 | 1012.6 |
| 20260502190527 | 56 | 318 | 0.0 | 0.0 | 0.01 | 0.01 | 0.01 | 98 | 1012.7 |
| 20260502190027 | 57 | 304 | 0.0 | 0.0 | 0.01 | 0.01 | 0.01 | 99 | 1012.7 |
| 20260502185527 | 57 | 311 | 0.0 | 0.0 | 0.00 | 0.00 | 0.00 | 99 | 1012.7 |
| 20260502185027 | 57 | 286 | 0.0 | 0.0 | 0.00 | 0.00 | 0.00 | 99 | 1012.7 |
| 20260502184527 | 57 | 277 | 0.0 | 0.0 | 0.00 | 0.00 | 0.00 | 99 | 1012.6 |
| 20260502184027 | 57 | 258 | 0.0 | 0.0 | 0.00 | 0.00 | 0.00 | 99 | 1012.6 |
| 20260502183525 | 58 | 291 | 0.0 | 0.0 | 0.00 | 0.00 | 0.00 | 99 | 1012.5 |
| 20260502183027 | 58 | 285 | 0.0 | 0.0 | 0.00 | 0.00 | 0.00 | 99 | 1012.7 |
| 20260502182527 | 58 | 304 | 0.0 | 0.0 | 0.00 | 0.00 | 0.00 | 99 | 1012.7 |
| 20260502182027 | 58 | 39 | 0.0 | 0.0 | 0.00 | 0.00 | 0.00 | 99 | 1012.6 |
| 20260502181521 | 58 | 264 | 0.0 | 0.0 | 0.00 | 0.00 | 0.00 | 99 | 1012.8 |
| 20260502181004 | 59 | 275 | 0.0 | 0.0 | 0.00 | 0.01 | 0.00 | 99 | 1012.7 |
| 20260502180457 | 59 | 273 | 0.0 | 0.0 | 0.00 | 0.01 | 0.00 | 99 | 1012.6 |
| 20260502170439 | 61 | 132 | 0.0 | 0.0 | 0.00 | 0.03 | 0.00 | 99 | 1012.9 |
| 20260502163938 | 62 | 138 | 0.0 | 0.0 | 0.00 | 0.03 | 0.00 | 99 | 1013.2 |
| 20260502163438 | 62 | 292 | 0.0 | 0.0 | 0.00 | 0.03 | 0.00 | 99 | 1013.3 |
| 20260502162938 | 61 | 281 | 0.0 | 0.0 | 0.00 | 0.03 | 0.00 | 99 | 1013.2 |
| 20260502162438 | 61 | 318 | 0.0 | 0.0 | 0.00 | 0.03 | 0.00 | 99 | 1013.4 |
| 20260502161938 | 62 | 281 | 0.0 | 0.0 | 0.00 | 0.03 | 0.00 | 99 | 1013.3 |
| 20260502161435 | 62 | 272 | 0.0 | 0.0 | 0.00 | 0.03 | 0.00 | 99 | 1013.4 |
| 20260502160938 | 62 | 275 | 0.0 | 0.0 | 0.00 | 0.03 | 0.00 | 99 | 1013.4 |
| 20260502160438 | 62 | 281 | 0.0 | 0.0 | 0.00 | 0.03 | 0.00 | 99 | 1013.4 |
| 20260502151926 | 62 | 95 | 0.0 | 0.0 | 0.00 | 0.03 | 0.00 | 99 | 1014.2 |
| 20260502151426 | 62 | 246 | 0.0 | 0.0 | 0.00 | 0.03 | 0.00 | 99 | 1014.3 |
| 20260502150926 | 62 | 243 | 0.0 | 0.0 | 0.00 | 0.03 | 0.00 | 99 | 1014.2 |
| 20260502150426 | 62 | 272 | 0.0 | 0.0 | 0.00 | 0.03 | 0.00 | 99 | 1014.2 |
| 20260502130314 | 63 | 273 | 0.0 | 0.0 | 0.00 | 0.03 | 0.00 | 99 | 1015.4 |
| 20260502123802 | 64 | 27 | 0.0 | 0.0 | 0.00 | 0.03 | 0.00 | 99 | 1015.4 |
| 20260502123303 | 63 | 331 | 0.0 | 0.0 | 0.00 | 0.03 | 0.00 | 99 | 1015.8 |
| 20260502122750 | 63 | 203 | 0.0 | 0.0 | 0.00 | 0.03 | 0.00 | 99 | 1015.8 |
| 20260502122250 | 62 | 268 | 0.0 | 0.0 | 0.00 | 0.03 | 0.00 | 99 | 1015.7 |
| 20260502121750 | 63 | 291 | 0.0 | 0.0 | 0.00 | 0.03 | 0.00 | 99 | 1015.8 |
| 20260502121238 | 61 | 33 | 0.0 | 0.0 | 0.00 | 0.03 | 0.00 | 99 | 1015.8 |
| 20260502120738 | 62 | 47 | 0.0 | 0.0 | 0.00 | 0.03 | 0.00 | 99 | 1016.1 |
| 20260502120237 | 62 | 203 | 0.0 | 0.0 | 0.00 | 0.03 | 0.00 | 99 | 1016.2 |
| 20260502115738 | 62 | 284 | 0.0 | 0.0 | 0.00 | 0.03 | 0.00 | 99 | 1016.1 |
| 20260502115238 | 61 | 220 | 0.0 | 0.0 | 0.00 | 0.03 | 0.00 | 99 | 1016.2 |
| 20260502114737 | 63 | 263 | 0.0 | 0.0 | 0.00 | 0.03 | 0.00 | 99 | 1016.5 |
| 20260502114238 | 62 | 329 | 0.0 | 0.0 | 0.00 | 0.03 | 0.00 | 99 | 1016.5 |
| 20260502113738 | 62 | 218 | 0.0 | 0.0 | 0.00 | 0.03 | 0.00 | 99 | 1016.6 |
| 20260502113238 | 62 | 239 | 0.0 | 0.0 | 0.00 | 0.03 | 0.00 | 99 | 1016.7 |
| 20260502112737 | 61 | 253 | 0.0 | 0.0 | 0.00 | 0.03 | 0.00 | 99 | 1016.6 |
| 20260502112238 | 61 | 265 | 0.0 | 0.0 | 0.00 | 0.03 | 0.00 | 99 | 1016.8 |
| 20260502111738 | 60 | 274 | 0.0 | 0.0 | 0.00 | 0.03 | 0.00 | 99 | 1016.7 |
| 20260502111238 | 60 | 278 | 0.0 | 0.0 | 0.00 | 0.03 | 0.00 | 99 | 1016.6 |
| 20260502110738 | 60 | 285 | 0.0 | 0.0 | 0.00 | 0.03 | 0.00 | 99 | 1016.8 |
| 20260502110238 | 59 | 247 | 0.0 | 0.0 | 0.00 | 0.03 | 0.00 | 99 | 1017.1 |
| 20260502105738 | 60 | 300 | 0.0 | 0.0 | 0.00 | 0.03 | 0.00 | 99 | 1017.0 |
| 20260502105238 | 61 | 259 | 0.0 | 0.0 | 0.00 | 0.03 | 0.00 | 99 | 1016.9 |
| 20260502104738 | 58 | 329 | 0.0 | 0.0 | 0.00 | 0.03 | 0.00 | 99 | 1017.0 |
| 20260502104238 | 58 | 260 | 0.0 | 0.0 | 0.00 | 0.03 | 0.00 | 99 | 1017.0 |
| 20260502103738 | 57 | 292 | 0.0 | 0.0 | 0.00 | 0.03 | 0.00 | 99 | 1017.0 |
| 20260502103238 | 57 | 293 | 0.0 | 0.0 | 0.00 | 0.03 | 0.00 | 99 | 1017.0 |
| 20260502102739 | 58 | 260 | 0.0 | 0.0 | 0.00 | 0.03 | 0.00 | 99 | 1017.1 |
| 20260502102239 | 58 | 235 | 0.0 | 0.0 | 0.00 | 0.03 | 0.00 | 99 | 1017.0 |
| 20260502101738 | 58 | 305 | 0.0 | 0.0 | 0.00 | 0.03 | 0.00 | 99 | 1016.9 |
| 20260502101238 | 56 | 271 | 0.0 | 0.0 | 0.00 | 0.03 | 0.00 | 99 | 1017.2 |
| 20260502100738 | 56 | 234 | 0.0 | 0.0 | 0.00 | 0.03 | 0.00 | 99 | 1017.1 |
| 20260502100238 | 55 | 248 | 0.0 | 0.0 | 0.00 | 0.03 | 0.00 | 99 | 1017.1 |
| 20260502091214 | 54 | 228 | 0.0 | 0.0 | 0.00 | 0.03 | 0.00 | 99 | 1017.6 |
| 20260502090702 | 54 | 267 | 0.0 | 0.0 | 0.00 | 0.03 | 0.00 | 99 | 1017.5 |
| 20260502090201 | 54 | 277 | 0.0 | 0.0 | 0.00 | 0.03 | 0.00 | 99 | 1017.6 |
| 20260502071126 | 48 | 280 | 0.0 | 0.0 | 0.00 | 0.03 | 0.00 | 99 | 1018.0 |
| 20260502070626 | 47 | 272 | 0.0 | 0.0 | 0.00 | 0.03 | 0.00 | 99 | 1017.8 |
| 20260502070126 | 47 | 264 | 0.0 | 0.0 | 0.00 | 0.03 | 0.00 | 99 | 1017.9 |
| 20260502065626 | 47 | 281 | 0.0 | 0.0 | 0.00 | 0.03 | 0.00 | 99 | 1017.9 |
| 20260502065126 | 47 | 273 | 0.0 | 0.0 | 0.00 | 0.03 | 0.00 | 99 | 1018.0 |
| 20260502064626 | 47 | 263 | 0.0 | 0.0 | 0.00 | 0.03 | 0.00 | 99 | 1017.7 |
| 20260502064126 | 47 | 281 | 0.0 | 0.0 | 0.00 | 0.03 | 0.00 | 99 | 1017.8 |
| 20260502063626 | 47 | 269 | 0.0 | 0.0 | 0.00 | 0.03 | 0.00 | 99 | 1017.7 |
| 20260502063126 | 47 | 259 | 0.0 | 0.0 | 0.00 | 0.03 | 0.00 | 99 | 1017.9 |
| 20260502062626 | 47 | 258 | 0.0 | 0.0 | 0.00 | 0.03 | 0.00 | 99 | 1017.8 |
| 20260502062126 | 47 | 250 | 0.0 | 0.0 | 0.00 | 0.03 | 0.00 | 99 | 1017.8 |
| 20260502061627 | 47 | 252 | 0.0 | 0.0 | 0.00 | 0.03 | 0.00 | 99 | 1017.7 |
| 20260502061126 | 46 | 239 | 0.0 | 0.0 | 0.00 | 0.03 | 0.00 | 99 | 1017.6 |
| 20260502060623 | 46 | 239 | 0.0 | 0.0 | 0.00 | 0.03 | 0.00 | 99 | 1017.8 |
| 20260502060126 | 46 | 222 | 0.0 | 0.0 | 0.00 | 0.03 | 0.00 | 99 | 1017.7 |
| 20260502055626 | 46 | 219 | 0.0 | 0.0 | 0.00 | 0.03 | 0.00 | 99 | 1017.8 |
| 20260502055126 | 46 | 199 | 0.0 | 0.0 | 0.00 | 0.03 | 0.00 | 99 | 1017.8 |
| 20260502054626 | 47 | 188 | 0.0 | 0.0 | 0.00 | 0.03 | 0.00 | 99 | 1017.6 |
| 20260502054126 | 46 | 241 | 0.0 | 0.0 | 0.00 | 0.03 | 0.00 | 99 | 1017.7 |
| 20260502053626 | 46 | 174 | 0.0 | 0.0 | 0.00 | 0.03 | 0.00 | 99 | 1017.6 |
| 20260502053126 | 46 | 138 | 0.0 | 0.0 | 0.00 | 0.03 | 0.00 | 99 | 1017.7 |
| 20260502052620 | 45 | 179 | 0.0 | 0.0 | 0.00 | 0.03 | 0.00 | 99 | 1017.5 |
| 20260502052114 | 45 | 200 | 0.0 | 0.0 | 0.00 | 0.03 | 0.00 | 99 | 1017.7 |
| 20260502051551 | 45 | 201 | 0.0 | 0.0 | 0.00 | 0.03 | 0.00 | 99 | 1017.6 |
| 20260502051051 | 45 | 208 | 0.0 | 0.0 | 0.00 | 0.03 | 0.00 | 99 | 1017.7 |
| 20260502050538 | 44 | 259 | 0.0 | 0.0 | 0.00 | 0.03 | 0.00 | 99 | 1017.8 |
| 20260502050038 | 44 | 264 | 0.0 | 0.0 | 0.00 | 0.03 | 0.00 | 99 | 1017.7 |
| 20260502045538 | 44 | 266 | 0.0 | 0.0 | 0.00 | 0.03 | 0.00 | 99 | 1017.9 |
| 20260502045038 | 44 | 263 | 0.0 | 0.0 | 0.00 | 0.03 | 0.00 | 99 | 1018.0 |
| 20260502044538 | 44 | 264 | 0.0 | 0.0 | 0.00 | 0.03 | 0.00 | 99 | 1017.8 |
| 20260502044038 | 44 | 267 | 0.0 | 0.0 | 0.00 | 0.03 | 0.00 | 99 | 1017.5 |
| 20260502043540 | 44 | 265 | 0.0 | 0.0 | 0.00 | 0.03 | 0.00 | 99 | 1017.7 |
| 20260502043038 | 44 | 267 | 0.0 | 0.0 | 0.00 | 0.03 | 0.00 | 99 | 1017.7 |
| 20260502042538 | 44 | 263 | 0.0 | 0.0 | 0.00 | 0.03 | 0.00 | 99 | 1017.7 |
| 20260502042039 | 44 | 266 | 0.0 | 0.0 | 0.00 | 0.03 | 0.00 | 99 | 1017.7 |
| 20260502041538 | 44 | 263 | 0.0 | 0.0 | 0.00 | 0.03 | 0.00 | 99 | 1017.7 |
| 20260502041038 | 44 | 260 | 0.0 | 0.0 | 0.00 | 0.03 | 0.00 | 99 | 1017.6 |
| 20260502040538 | 44 | 261 | 0.0 | 0.0 | 0.00 | 0.03 | 0.00 | 99 | 1017.8 |
| 20260502040038 | 44 | 260 | 0.0 | 0.0 | 0.00 | 0.03 | 0.00 | 99 | 1017.8 |
| 20260502035538 | 44 | 260 | 0.0 | 0.0 | 0.00 | 0.03 | 0.00 | 99 | 1018.0 |
| 20260502035038 | 44 | 260 | 0.0 | 0.0 | 0.00 | 0.03 | 0.00 | 99 | 1017.9 |
| 20260502034526 | 45 | 262 | 0.0 | 0.0 | 0.00 | 0.03 | 0.00 | 99 | 1018.2 |
| 20260502034026 | 45 | 267 | 0.0 | 0.0 | 0.00 | 0.03 | 0.00 | 99 | 1017.8 |
| 20260502033526 | 45 | 263 | 0.0 | 0.0 | 0.00 | 0.03 | 0.00 | 99 | 1017.8 |
| 20260502033027 | 45 | 262 | 0.0 | 0.0 | 0.00 | 0.03 | 0.00 | 99 | 1018.0 |
| 20260502032526 | 45 | 263 | 0.0 | 0.0 | 0.00 | 0.03 | 0.00 | 99 | 1017.9 |
| 20260502032026 | 45 | 263 | 0.0 | 0.0 | 0.00 | 0.03 | 0.00 | 99 | 1018.0 |
| 20260502031526 | 46 | 261 | 0.0 | 0.0 | 0.00 | 0.03 | 0.00 | 99 | 1018.0 |
| 20260502031014 | 45 | 246 | 0.0 | 0.0 | 0.00 | 0.03 | 0.00 | 99 | 1018.2 |
| 20260502030515 | 45 | 261 | 0.0 | 0.0 | 0.00 | 0.03 | 0.00 | 99 | 1018.0 |
| 20260502030016 | 45 | 267 | 0.0 | 0.0 | 0.00 | 0.03 | 0.00 | 99 | 1018.2 |
| 20260502025502 | 45 | 263 | 0.0 | 0.0 | 0.00 | 0.03 | 0.00 | 99 | 1018.2 |
| 20260502025002 | 46 | 265 | 0.0 | 0.0 | 0.00 | 0.03 | 0.00 | 99 | 1018.0 |
| 20260502024438 | 46 | 280 | 0.0 | 0.0 | 0.00 | 0.03 | 0.00 | 99 | 1018.0 |
| 20260502023938 | 46 | 270 | 0.0 | 0.0 | 0.00 | 0.03 | 0.00 | 99 | 1018.2 |
| 20260502023438 | 46 | 259 | 0.0 | 0.0 | 0.00 | 0.03 | 0.00 | 99 | 1018.2 |
| 20260502022938 | 46 | 258 | 0.0 | 0.0 | 0.00 | 0.03 | 0.00 | 99 | 1018.2 |
| 20260502022438 | 46 | 252 | 0.0 | 0.0 | 0.00 | 0.03 | 0.00 | 99 | 1018.3 |
| 20260502021940 | 46 | 233 | 0.0 | 0.0 | 0.00 | 0.03 | 0.00 | 99 | 1018.2 |
| 20260502021438 | 46 | 247 | 0.0 | 0.0 | 0.00 | 0.03 | 0.00 | 99 | 1018.0 |
| 20260502020938 | 47 | 249 | 0.0 | 0.0 | 0.00 | 0.03 | 0.00 | 99 | 1018.2 |
| 20260502020438 | 47 | 274 | 0.0 | 0.0 | 0.00 | 0.03 | 0.00 | 99 | 1018.4 |
| 20260502015938 | 47 | 298 | 0.0 | 0.0 | 0.00 | 0.03 | 0.00 | 99 | 1018.2 |
| 20260502015438 | 47 | 270 | 0.0 | 0.0 | 0.00 | 0.03 | 0.00 | 99 | 1018.0 |
| 20260502014938 | 47 | 295 | 0.0 | 0.0 | 0.00 | 0.03 | 0.00 | 99 | 1018.3 |
| 20260502014438 | 47 | 265 | 0.0 | 0.0 | 0.00 | 0.03 | 0.00 | 99 | 1018.3 |
| 20260502013938 | 47 | 264 | 0.0 | 0.0 | 0.00 | 0.03 | 0.00 | 99 | 1018.4 |
| 20260502013438 | 47 | 266 | 0.0 | 0.0 | 0.00 | 0.03 | 0.00 | 99 | 1018.6 |
| 20260502012938 | 48 | 247 | 0.0 | 0.0 | 0.00 | 0.03 | 0.00 | 99 | 1018.6 |
| 20260502012438 | 48 | 245 | 0.0 | 0.0 | 0.00 | 0.03 | 0.00 | 99 | 1018.5 |
| 20260502011938 | 48 | 261 | 0.0 | 0.0 | 0.00 | 0.03 | 0.00 | 99 | 1018.6 |
| 20260502011438 | 48 | 259 | 0.0 | 0.0 | 0.00 | 0.03 | 0.00 | 99 | 1018.7 |
| 20260502010938 | 48 | 264 | 0.0 | 0.0 | 0.00 | 0.03 | 0.00 | 99 | 1018.6 |
| 20260502010438 | 48 | 262 | 0.0 | 0.0 | 0.00 | 0.03 | 0.00 | 99 | 1018.8 |
| 20260502005938 | 48 | 244 | 0.0 | 0.0 | 0.00 | 0.03 | 0.00 | 99 | 1018.7 |
| 20260502005438 | 48 | 256 | 0.0 | 0.0 | 0.00 | 0.03 | 0.00 | 99 | 1018.8 |
| 20260502004939 | 48 | 271 | 0.0 | 0.0 | 0.00 | 0.03 | 0.00 | 99 | 1019.0 |
| 20260502004438 | 49 | 274 | 0.0 | 0.0 | 0.00 | 0.03 | 0.00 | 99 | 1019.0 |
| 20260502003939 | 49 | 303 | 0.0 | 0.0 | 0.00 | 0.03 | 0.00 | 99 | 1018.9 |
| 20260502003438 | 49 | 267 | 0.0 | 0.0 | 0.00 | 0.03 | 0.00 | 99 | 1019.0 |
| 20260502002926 | 49 | 272 | 0.0 | 0.0 | 0.00 | 0.03 | 0.00 | 99 | 1019.1 |
| 20260502002426 | 49 | 274 | 0.0 | 0.0 | 0.00 | 0.03 | 0.00 | 99 | 1019.0 |
| 20260502001926 | 49 | 260 | 0.0 | 0.0 | 0.00 | 0.03 | 0.00 | 99 | 1019.1 |
| 20260502001427 | 49 | 250 | 0.0 | 0.0 | 0.00 | 0.03 | 0.00 | 99 | 1019.3 |
| 20260502000926 | 50 | 265 | 0.0 | 0.0 | 0.00 | 0.03 | 0.00 | 99 | 1019.2 |
| 20260502000426 | 50 | 268 | 0.0 | 0.0 | 0.00 | 0.03 | 0.00 | 99 | 1019.3 |
| 20260501235926 | 50 | 249 | 0.0 | 0.0 | 0.00 | 0.03 | 0.00 | 99 | 1019.4 |
| 20260501235426 | 51 | 228 | 0.0 | 0.0 | 0.00 | 0.03 | 0.00 | 99 | 1019.4 |
| 20260501234926 | 51 | 233 | 0.0 | 0.0 | 0.00 | 0.03 | 0.00 | 99 | 1019.2 |
| 20260501234426 | 51 | 243 | 0.0 | 0.0 | 0.00 | 0.03 | 0.00 | 99 | 1019.6 |
| 20260501233927 | 51 | 224 | 0.0 | 0.0 | 0.00 | 0.03 | 0.00 | 99 | 1019.6 |
| 20260501233426 | 52 | 268 | 0.0 | 0.0 | 0.00 | 0.03 | 0.00 | 99 | 1019.4 |
| 20260501232926 | 52 | 252 | 0.0 | 0.0 | 0.00 | 0.03 | 0.00 | 99 | 1019.4 |
| 20260501232426 | 52 | 252 | 0.0 | 0.0 | 0.00 | 0.03 | 0.00 | 99 | 1019.3 |
| 20260501231926 | 52 | 263 | 0.0 | 0.0 | 0.00 | 0.03 | 0.00 | 99 | 1019.3 |
| 20260501231419 | 52 | 244 | 0.0 | 0.0 | 0.00 | 0.03 | 0.00 | 99 | 1019.4 |
| 20260501230914 | 52 | 262 | 0.0 | 0.0 | 0.00 | 0.03 | 0.00 | 99 | 1019.3 |
| 20260501230414 | 52 | 263 | 0.0 | 0.0 | 0.00 | 0.03 | 0.00 | 99 | 1019.5 |
| 20260501225902 | 52 | 243 | 0.0 | 0.0 | 0.00 | 0.03 | 0.03 | 99 | 1019.3 |
| 20260501225402 | 53 | 259 | 0.0 | 0.0 | 0.00 | 0.03 | 0.03 | 99 | 1019.5 |
| 20260501224902 | 53 | 285 | 0.0 | 0.0 | 0.00 | 0.03 | 0.03 | 99 | 1019.5 |
| 20260501224401 | 53 | 263 | 0.0 | 0.0 | 0.00 | 0.03 | 0.03 | 99 | 1019.4 |
| 20260501223902 | 53 | 280 | 0.0 | 0.0 | 0.00 | 0.03 | 0.03 | 99 | 1019.4 |
| 20260501223401 | 53 | 266 | 0.0 | 0.0 | 0.00 | 0.03 | 0.03 | 99 | 1019.4 |
| 20260501222902 | 53 | 241 | 0.0 | 0.0 | 0.00 | 0.03 | 0.03 | 99 | 1019.3 |
| 20260501222350 | 53 | 284 | 0.0 | 0.0 | 0.00 | 0.03 | 0.03 | 99 | 1019.2 |
| 20260501221850 | 53 | 324 | 0.0 | 0.0 | 0.00 | 0.03 | 0.03 | 99 | 1019.2 |
| 20260501221350 | 53 | 246 | 0.0 | 0.0 | 0.00 | 0.03 | 0.03 | 99 | 1019.2 |
| 20260501220839 | 53 | 310 | 0.0 | 0.0 | 0.00 | 0.03 | 0.03 | 99 | 1019.2 |
| 20260501220339 | 53 | 262 | 0.0 | 0.0 | 0.00 | 0.03 | 0.03 | 99 | 1019.2 |
| 20260501215838 | 53 | 272 | 0.0 | 0.0 | 0.00 | 0.03 | 0.03 | 99 | 1019.4 |
| 20260501215326 | 54 | 272 | 0.0 | 0.0 | 0.00 | 0.03 | 0.03 | 99 | 1019.3 |
| 20260501214826 | 54 | 256 | 0.0 | 0.0 | 0.00 | 0.03 | 0.03 | 99 | 1019.3 |
| 20260501214326 | 54 | 323 | 0.0 | 0.0 | 0.00 | 0.03 | 0.03 | 99 | 1019.2 |
| 20260501213827 | 54 | 252 | 0.0 | 0.0 | 0.00 | 0.03 | 0.03 | 99 | 1019.3 |
| 20260501213326 | 54 | 274 | 0.0 | 0.0 | 0.00 | 0.03 | 0.03 | 99 | 1019.4 |
| 20260501212826 | 54 | 261 | 0.0 | 0.0 | 0.00 | 0.03 | 0.03 | 99 | 1019.2 |
| 20260501212326 | 54 | 290 | 0.0 | 0.0 | 0.00 | 0.03 | 0.03 | 99 | 1019.1 |
| 20260501211826 | 54 | 308 | 0.0 | 0.0 | 0.00 | 0.03 | 0.03 | 99 | 1019.4 |
| 20260501211326 | 54 | 316 | 0.0 | 0.0 | 0.00 | 0.03 | 0.03 | 99 | 1019.4 |
| 20260501210826 | 54 | 279 | 0.0 | 0.0 | 0.00 | 0.03 | 0.03 | 99 | 1019.2 |